Terminal Aerodrome Forecast
Issued by NWS Knoxville/Tri Cities, TN

Home | Current Version | Previous Version | Text Only | Print | Product List | Glossary On
Versions: 1 2 3 4 5 6 7 8 9 10 11 12 13 14 15 16 17 18 19 20 21 22 23 24 25 26 27 28
000
FTUS44 KMRX 252326
TAFCHA
TAF
KCHA 252326Z 2600/2624 18004KT 4SM BR VCTS BKN040CB
     FM260200 18003KT P6SM VCSH BKN050
     FM261100 17004KT P6SM VCSH BKN020
     FM261600 18010KT P6SM VCTS BKN050CB=

USA.gov is the U.S. government's official web portal to all federal, state and local government web resources and services.